Bedford, Michigan
Current Conditions -  °F | °C
As of 2:53 AM on Sunday 23 Nov 2014 (Local Time) from KBTL Reporting Station
Overcast Overcast  
Wind Chill: 51°   Ceiling: 2300
Heat Index: 51°   Visibility: 10mi
Dew Point: 44°   Wind: 14mph
Humidity: 77%   Direction: 200°SSW
Pressure: 29.91"   Gusts: NA
Location:  42.4°N, 85.23°W
Report Text: KBTL 230753Z 20012KT 10SM OVC023 11/07 A2991 RMK AO2 SLP131 T01060067 $
Loading
Personal Weather Stations






























Interactive Weather Map New forecast layout! Learn more

10-Day Weather Forecast

Advertisements
Track Severe Weather on mobile